ホバート の空港の天気 - METARとTAF

ホバート国際空港 ( YMHB / HBA ) - オーストラリア タスマニア州、Cambridge
飛行場実況気象(Metar)
観測時間01/23 15:00 AEDT (01/23 04:00 UTC)
風向・風速西北西 7m/s
視程10km以上
天気現象
なし
気温25℃
湿度28%
気圧1007hPa
METARYMHB 230400Z 29013KT 190V290 CAVOK 25/05 Q1007
過去の天気等 Google飛行場航空写真 Wunderground天気予報

過去48時間のMETAR

飛行場予報(TAF)
発表時間: 1/23 10:03 AEDT (1/22 23:03 UTC)
予報対象時間: 23日11時 AEDT ~ 24日11時 AEDT
風向・風速北西 6m/s
視程10km以上
少しの雲 雲底高度 1,520m
23日16時 AEDT から
風向・風速東南東 4m/s
視程10km以上
なし
23日20時 AEDT から
風向・風速北東 5m/s
視程10km以上
なし
23日23時 AEDT から
風向・風速北西 3m/s
視程10km以上
全天の4割程度の雲 雲底高度 910m
TAF YMHB 222303Z 2300/2324 31012KT 9999 FEW050
FM230500 12008KT CAVOK
FM230900 05010KT CAVOK
FM231200 31005KT 9999 SCT030